sensor_id;sensor_type;location;lat;lon;timestamp;P1;durP1;ratioP1;P2;durP2;ratioP2
51248;SDS011;39642;47.556;18.728;2022-12-05T00:01:51;10.52;;;4.10;;
51248;SDS011;39642;47.556;18.728;2022-12-05T00:04:06;10.15;;;4.10;;
51248;SDS011;39642;47.556;18.728;2022-12-05T00:06:35;9.88;;;4.00;;
51248;SDS011;39642;47.556;18.728;2022-12-05T00:09:03;10.32;;;4.00;;
51248;SDS011;39642;47.556;18.728;2022-12-05T00:11:31;10.73;;;4.10;;
51248;SDS011;39642;47.556;18.728;2022-12-05T00:13:59;9.95;;;3.90;;
51248;SDS011;39642;47.556;18.728;2022-12-05T00:16:26;10.20;;;4.03;;
51248;SDS011;39642;47.556;18.728;2022-12-05T00:18:55;9.65;;;3.80;;
51248;SDS011;39642;47.556;18.728;2022-12-05T00:21:23;10.02;;;4.10;;
51248;SDS011;39642;47.556;18.728;2022-12-05T00:23:51;9.45;;;3.75;;
51248;SDS011;39642;47.556;18.728;2022-12-05T00:26:18;9.35;;;3.62;;
51248;SDS011;39642;47.556;18.728;2022-12-05T00:28:45;10.48;;;3.92;;
51248;SDS011;39642;47.556;18.728;2022-12-05T00:31:16;9.20;;;3.70;;
51248;SDS011;39642;47.556;18.728;2022-12-05T00:33:44;10.13;;;3.62;;
51248;SDS011;39642;47.556;18.728;2022-12-05T00:36:12;10.20;;;3.90;;
51248;SDS011;39642;47.556;18.728;2022-12-05T00:38:40;9.82;;;3.67;;
51248;SDS011;39642;47.556;18.728;2022-12-05T00:41:28;10.07;;;3.78;;
51248;SDS011;39642;47.556;18.728;2022-12-05T00:43:54;8.88;;;3.40;;
51248;SDS011;39642;47.556;18.728;2022-12-05T00:46:23;9.52;;;3.92;;
51248;SDS011;39642;47.556;18.728;2022-12-05T00:48:51;10.27;;;3.70;;
51248;SDS011;39642;47.556;18.728;2022-12-05T00:51:20;9.77;;;3.50;;
51248;SDS011;39642;47.556;18.728;2022-12-05T00:53:52;10.60;;;3.53;;
51248;SDS011;39642;47.556;18.728;2022-12-05T00:56:20;9.18;;;3.60;;
51248;SDS011;39642;47.556;18.728;2022-12-05T00:58:48;9.35;;;3.50;;
51248;SDS011;39642;47.556;18.728;2022-12-05T01:01:16;10.02;;;3.72;;
51248;SDS011;39642;47.556;18.728;2022-12-05T01:03:44;9.77;;;3.70;;
51248;SDS011;39642;47.556;18.728;2022-12-05T01:06:11;9.45;;;3.53;;
51248;SDS011;39642;47.556;18.728;2022-12-05T01:08:38;9.75;;;3.67;;
51248;SDS011;39642;47.556;18.728;2022-12-05T01:11:05;10.23;;;3.97;;
51248;SDS011;39642;47.556;18.728;2022-12-05T01:13:32;9.70;;;3.47;;
51248;SDS011;39642;47.556;18.728;2022-12-05T01:15:58;8.70;;;3.20;;
51248;SDS011;39642;47.556;18.728;2022-12-05T01:18:24;9.35;;;3.60;;
51248;SDS011;39642;47.556;18.728;2022-12-05T01:20:51;9.38;;;3.90;;
51248;SDS011;39642;47.556;18.728;2022-12-05T01:23:18;9.82;;;3.70;;
51248;SDS011;39642;47.556;18.728;2022-12-05T01:25:46;10.90;;;3.45;;
51248;SDS011;39642;47.556;18.728;2022-12-05T01:28:13;9.75;;;3.50;;
51248;SDS011;39642;47.556;18.728;2022-12-05T01:30:40;9.23;;;3.60;;
51248;SDS011;39642;47.556;18.728;2022-12-05T01:33:08;9.80;;;3.42;;
51248;SDS011;39642;47.556;18.728;2022-12-05T01:35:35;10.43;;;3.62;;
51248;SDS011;39642;47.556;18.728;2022-12-05T01:38:02;9.52;;;3.55;;
51248;SDS011;39642;47.556;18.728;2022-12-05T01:40:28;9.20;;;3.03;;
51248;SDS011;39642;47.556;18.728;2022-12-05T01:42:54;10.70;;;3.22;;
51248;SDS011;39642;47.556;18.728;2022-12-05T01:45:31;9.50;;;3.58;;
51248;SDS011;39642;47.556;18.728;2022-12-05T01:48:00;9.25;;;3.60;;
51248;SDS011;39642;47.556;18.728;2022-12-05T01:50:30;9.80;;;3.50;;
51248;SDS011;39642;47.556;18.728;2022-12-05T01:52:57;8.95;;;3.53;;
51248;SDS011;39642;47.556;18.728;2022-12-05T01:55:23;9.25;;;3.30;;
51248;SDS011;39642;47.556;18.728;2022-12-05T01:57:49;9.10;;;3.28;;
51248;SDS011;39642;47.556;18.728;2022-12-05T02:00:16;9.35;;;3.35;;
51248;SDS011;39642;47.556;18.728;2022-12-05T02:02:48;9.10;;;3.12;;
51248;SDS011;39642;47.556;18.728;2022-12-05T02:05:28;9.57;;;3.60;;
51248;SDS011;39642;47.556;18.728;2022-12-05T02:07:56;10.38;;;3.70;;
51248;SDS011;39642;47.556;18.728;2022-12-05T02:10:23;10.52;;;3.55;;
51248;SDS011;39642;47.556;18.728;2022-12-05T02:12:50;9.13;;;3.30;;
51248;SDS011;39642;47.556;18.728;2022-12-05T02:15:35;9.40;;;3.30;;
51248;SDS011;39642;47.556;18.728;2022-12-05T02:23:34;9.80;;;3.40;;
51248;SDS011;39642;47.556;18.728;2022-12-05T02:29:21;8.05;;;2.90;;
51248;SDS011;39642;47.556;18.728;2022-12-05T02:32:12;8.35;;;3.10;;
51248;SDS011;39642;47.556;18.728;2022-12-05T02:37:31;9.57;;;3.40;;
51248;SDS011;39642;47.556;18.728;2022-12-05T02:40:24;9.20;;;3.62;;
51248;SDS011;39642;47.556;18.728;2022-12-05T02:43:01;9.43;;;3.50;;
51248;SDS011;39642;47.556;18.728;2022-12-05T02:45:36;9.80;;;3.78;;
51248;SDS011;39642;47.556;18.728;2022-12-05T02:48:05;8.93;;;3.10;;
51248;SDS011;39642;47.556;18.728;2022-12-05T02:50:36;9.15;;;3.30;;
51248;SDS011;39642;47.556;18.728;2022-12-05T02:53:10;8.57;;;3.08;;
51248;SDS011;39642;47.556;18.728;2022-12-05T02:55:39;9.82;;;3.45;;
51248;SDS011;39642;47.556;18.728;2022-12-05T02:58:08;9.10;;;3.37;;
51248;SDS011;39642;47.556;18.728;2022-12-05T03:00:43;9.75;;;3.40;;
51248;SDS011;39642;47.556;18.728;2022-12-05T03:03:15;9.32;;;3.50;;
51248;SDS011;39642;47.556;18.728;2022-12-05T03:08:38;9.43;;;3.20;;
51248;SDS011;39642;47.556;18.728;2022-12-05T03:11:09;9.43;;;3.42;;
51248;SDS011;39642;47.556;18.728;2022-12-05T03:13:45;10.05;;;3.40;;
51248;SDS011;39642;47.556;18.728;2022-12-05T03:16:17;10.38;;;3.40;;
51248;SDS011;39642;47.556;18.728;2022-12-05T03:19:09;9.00;;;3.00;;
51248;SDS011;39642;47.556;18.728;2022-12-05T03:21:58;8.70;;;3.15;;
51248;SDS011;39642;47.556;18.728;2022-12-05T03:24:27;9.13;;;3.42;;
51248;SDS011;39642;47.556;18.728;2022-12-05T03:29:55;8.98;;;3.30;;
51248;SDS011;39642;47.556;18.728;2022-12-05T03:32:35;9.77;;;3.50;;
51248;SDS011;39642;47.556;18.728;2022-12-05T03:46:08;9.50;;;3.45;;
51248;SDS011;39642;47.556;18.728;2022-12-05T03:51:15;10.48;;;3.90;;
51248;SDS011;39642;47.556;18.728;2022-12-05T03:53:47;9.55;;;3.70;;
51248;SDS011;39642;47.556;18.728;2022-12-05T03:56:21;10.23;;;3.92;;
51248;SDS011;39642;47.556;18.728;2022-12-05T03:58:53;9.85;;;3.67;;
51248;SDS011;39642;47.556;18.728;2022-12-05T04:01:23;10.20;;;4.12;;
51248;SDS011;39642;47.556;18.728;2022-12-05T04:04:01;10.55;;;3.87;;
51248;SDS011;39642;47.556;18.728;2022-12-05T04:06:35;10.23;;;3.97;;
51248;SDS011;39642;47.556;18.728;2022-12-05T04:09:08;10.07;;;3.90;;
51248;SDS011;39642;47.556;18.728;2022-12-05T04:11:40;9.85;;;3.62;;
51248;SDS011;39642;47.556;18.728;2022-12-05T04:14:14;10.52;;;4.03;;
51248;SDS011;39642;47.556;18.728;2022-12-05T04:16:52;9.55;;;3.70;;
51248;SDS011;39642;47.556;18.728;2022-12-05T04:19:29;9.90;;;3.62;;
51248;SDS011;39642;47.556;18.728;2022-12-05T04:22:23;10.65;;;3.80;;
51248;SDS011;39642;47.556;18.728;2022-12-05T04:24:50;9.55;;;3.70;;
51248;SDS011;39642;47.556;18.728;2022-12-05T04:27:40;9.88;;;3.78;;
51248;SDS011;39642;47.556;18.728;2022-12-05T04:30:15;9.85;;;3.87;;
51248;SDS011;39642;47.556;18.728;2022-12-05T04:33:04;9.85;;;3.53;;
51248;SDS011;39642;47.556;18.728;2022-12-05T04:35:32;9.55;;;3.85;;
51248;SDS011;39642;47.556;18.728;2022-12-05T04:38:16;10.05;;;4.00;;
51248;SDS011;39642;47.556;18.728;2022-12-05T04:40:53;10.50;;;4.15;;
51248;SDS011;39642;47.556;18.728;2022-12-05T04:43:23;10.30;;;4.30;;
51248;SDS011;39642;47.556;18.728;2022-12-05T04:45:51;10.00;;;3.72;;
51248;SDS011;39642;47.556;18.728;2022-12-05T04:48:20;10.50;;;4.15;;
51248;SDS011;39642;47.556;18.728;2022-12-05T04:50:49;11.35;;;4.10;;
51248;SDS011;39642;47.556;18.728;2022-12-05T04:53:18;9.60;;;3.80;;
51248;SDS011;39642;47.556;18.728;2022-12-05T04:55:48;9.60;;;3.85;;
51248;SDS011;39642;47.556;18.728;2022-12-05T04:58:18;12.27;;;4.22;;
51248;SDS011;39642;47.556;18.728;2022-12-05T05:01:04;11.23;;;4.55;;
51248;SDS011;39642;47.556;18.728;2022-12-05T05:06:18;10.75;;;4.00;;
51248;SDS011;39642;47.556;18.728;2022-12-05T05:08:46;10.05;;;3.87;;
51248;SDS011;39642;47.556;18.728;2022-12-05T05:11:18;10.05;;;3.92;;
51248;SDS011;39642;47.556;18.728;2022-12-05T05:13:46;9.57;;;4.03;;
51248;SDS011;39642;47.556;18.728;2022-12-05T05:16:19;10.57;;;4.45;;
51248;SDS011;39642;47.556;18.728;2022-12-05T05:18:50;10.48;;;3.90;;
51248;SDS011;39642;47.556;18.728;2022-12-05T05:21:18;11.55;;;4.65;;
51248;SDS011;39642;47.556;18.728;2022-12-05T05:23:46;10.80;;;4.28;;
51248;SDS011;39642;47.556;18.728;2022-12-05T05:26:12;9.57;;;3.72;;
51248;SDS011;39642;47.556;18.728;2022-12-05T05:28:38;10.50;;;3.87;;
51248;SDS011;39642;47.556;18.728;2022-12-05T05:31:04;10.30;;;4.20;;
51248;SDS011;39642;47.556;18.728;2022-12-05T05:33:31;11.70;;;4.07;;
51248;SDS011;39642;47.556;18.728;2022-12-05T05:36:00;10.02;;;3.92;;
51248;SDS011;39642;47.556;18.728;2022-12-05T05:38:39;11.75;;;4.12;;
51248;SDS011;39642;47.556;18.728;2022-12-05T05:41:15;11.23;;;4.20;;
51248;SDS011;39642;47.556;18.728;2022-12-05T05:43:45;10.40;;;4.30;;
51248;SDS011;39642;47.556;18.728;2022-12-05T05:46:12;10.73;;;4.22;;
51248;SDS011;39642;47.556;18.728;2022-12-05T05:48:39;10.57;;;4.20;;
51248;SDS011;39642;47.556;18.728;2022-12-05T05:51:06;10.40;;;4.00;;
51248;SDS011;39642;47.556;18.728;2022-12-05T05:53:33;11.75;;;4.20;;
51248;SDS011;39642;47.556;18.728;2022-12-05T05:56:06;10.32;;;4.05;;
51248;SDS011;39642;47.556;18.728;2022-12-05T05:58:37;14.73;;;5.00;;
51248;SDS011;39642;47.556;18.728;2022-12-05T06:01:04;10.25;;;4.25;;
51248;SDS011;39642;47.556;18.728;2022-12-05T06:03:31;11.70;;;5.28;;
51248;SDS011;39642;47.556;18.728;2022-12-05T06:05:58;13.77;;;7.10;;
51248;SDS011;39642;47.556;18.728;2022-12-05T06:08:27;13.00;;;5.78;;
51248;SDS011;39642;47.556;18.728;2022-12-05T06:10:54;21.33;;;9.90;;
51248;SDS011;39642;47.556;18.728;2022-12-05T06:13:20;13.52;;;5.87;;
51248;SDS011;39642;47.556;18.728;2022-12-05T06:15:46;13.73;;;6.15;;
51248;SDS011;39642;47.556;18.728;2022-12-05T06:18:12;28.62;;;15.05;;
51248;SDS011;39642;47.556;18.728;2022-12-05T06:20:37;23.30;;;9.73;;
51248;SDS011;39642;47.556;18.728;2022-12-05T06:23:03;16.58;;;7.40;;
51248;SDS011;39642;47.556;18.728;2022-12-05T06:25:29;14.98;;;6.80;;
51248;SDS011;39642;47.556;18.728;2022-12-05T06:27:55;13.70;;;5.65;;
51248;SDS011;39642;47.556;18.728;2022-12-05T06:30:21;26.45;;;8.95;;
51248;SDS011;39642;47.556;18.728;2022-12-05T06:32:47;29.48;;;9.65;;
51248;SDS011;39642;47.556;18.728;2022-12-05T06:35:13;18.05;;;7.28;;
51248;SDS011;39642;47.556;18.728;2022-12-05T06:37:42;31.42;;;7.47;;
51248;SDS011;39642;47.556;18.728;2022-12-05T06:40:09;27.13;;;9.60;;
51248;SDS011;39642;47.556;18.728;2022-12-05T06:42:36;29.17;;;8.13;;
51248;SDS011;39642;47.556;18.728;2022-12-05T06:45:02;50.65;;;12.45;;
51248;SDS011;39642;47.556;18.728;2022-12-05T06:47:29;48.22;;;11.18;;
51248;SDS011;39642;47.556;18.728;2022-12-05T06:49:56;22.02;;;7.90;;
51248;SDS011;39642;47.556;18.728;2022-12-05T06:52:22;32.28;;;8.27;;
51248;SDS011;39642;47.556;18.728;2022-12-05T06:54:47;38.58;;;8.68;;
51248;SDS011;39642;47.556;18.728;2022-12-05T06:57:13;54.65;;;10.15;;
51248;SDS011;39642;47.556;18.728;2022-12-05T06:59:39;35.60;;;8.35;;
51248;SDS011;39642;47.556;18.728;2022-12-05T07:02:05;33.33;;;9.10;;
51248;SDS011;39642;47.556;18.728;2022-12-05T07:04:34;46.03;;;8.25;;
51248;SDS011;39642;47.556;18.728;2022-12-05T07:07:00;52.50;;;8.80;;
51248;SDS011;39642;47.556;18.728;2022-12-05T07:09:26;48.97;;;9.18;;
51248;SDS011;39642;47.556;18.728;2022-12-05T07:12:14;28.87;;;8.13;;
51248;SDS011;39642;47.556;18.728;2022-12-05T07:14:41;27.37;;;6.97;;
51248;SDS011;39642;47.556;18.728;2022-12-05T07:17:08;46.55;;;8.23;;
51248;SDS011;39642;47.556;18.728;2022-12-05T07:19:34;72.03;;;10.82;;
51248;SDS011;39642;47.556;18.728;2022-12-05T07:22:00;31.80;;;8.13;;
51248;SDS011;39642;47.556;18.728;2022-12-05T07:24:26;28.95;;;7.10;;
51248;SDS011;39642;47.556;18.728;2022-12-05T07:26:52;37.78;;;7.03;;
51248;SDS011;39642;47.556;18.728;2022-12-05T07:29:18;41.92;;;8.82;;
51248;SDS011;39642;47.556;18.728;2022-12-05T07:31:44;39.92;;;8.57;;
51248;SDS011;39642;47.556;18.728;2022-12-05T07:34:10;44.00;;;8.38;;
51248;SDS011;39642;47.556;18.728;2022-12-05T07:36:36;48.67;;;9.85;;
51248;SDS011;39642;47.556;18.728;2022-12-05T07:39:02;59.35;;;9.55;;
51248;SDS011;39642;47.556;18.728;2022-12-05T07:41:29;47.95;;;9.35;;
51248;SDS011;39642;47.556;18.728;2022-12-05T07:43:58;44.65;;;8.55;;
51248;SDS011;39642;47.556;18.728;2022-12-05T07:46:25;90.87;;;10.70;;
51248;SDS011;39642;47.556;18.728;2022-12-05T07:48:53;176.07;;;15.55;;
51248;SDS011;39642;47.556;18.728;2022-12-05T07:51:19;154.65;;;14.52;;
51248;SDS011;39642;47.556;18.728;2022-12-05T07:53:46;79.10;;;11.80;;
51248;SDS011;39642;47.556;18.728;2022-12-05T07:56:13;103.55;;;13.57;;
51248;SDS011;39642;47.556;18.728;2022-12-05T07:58:41;140.45;;;18.67;;
51248;SDS011;39642;47.556;18.728;2022-12-05T08:01:10;110.93;;;13.05;;
51248;SDS011;39642;47.556;18.728;2022-12-05T08:03:40;87.22;;;13.48;;
51248;SDS011;39642;47.556;18.728;2022-12-05T08:06:08;94.78;;;14.82;;
51248;SDS011;39642;47.556;18.728;2022-12-05T08:08:35;68.82;;;11.88;;
51248;SDS011;39642;47.556;18.728;2022-12-05T08:11:08;79.85;;;13.23;;
51248;SDS011;39642;47.556;18.728;2022-12-05T08:13:37;76.18;;;12.27;;
51248;SDS011;39642;47.556;18.728;2022-12-05T08:16:04;77.50;;;11.77;;
51248;SDS011;39642;47.556;18.728;2022-12-05T08:18:35;79.07;;;12.52;;
51248;SDS011;39642;47.556;18.728;2022-12-05T08:21:08;54.20;;;10.00;;
51248;SDS011;39642;47.556;18.728;2022-12-05T08:23:36;57.95;;;9.82;;
51248;SDS011;39642;47.556;18.728;2022-12-05T08:28:29;53.38;;;10.20;;
51248;SDS011;39642;47.556;18.728;2022-12-05T08:31:01;48.78;;;9.55;;
51248;SDS011;39642;47.556;18.728;2022-12-05T08:33:28;54.65;;;11.07;;
51248;SDS011;39642;47.556;18.728;2022-12-05T08:35:54;46.15;;;9.93;;
51248;SDS011;39642;47.556;18.728;2022-12-05T08:38:20;43.45;;;10.55;;
51248;SDS011;39642;47.556;18.728;2022-12-05T08:40:46;50.15;;;9.85;;
51248;SDS011;39642;47.556;18.728;2022-12-05T08:43:12;51.65;;;9.60;;
51248;SDS011;39642;47.556;18.728;2022-12-05T08:45:39;54.17;;;10.00;;
51248;SDS011;39642;47.556;18.728;2022-12-05T08:48:04;40.12;;;8.77;;
51248;SDS011;39642;47.556;18.728;2022-12-05T08:50:31;43.45;;;10.50;;
51248;SDS011;39642;47.556;18.728;2022-12-05T08:52:56;53.63;;;9.95;;
51248;SDS011;39642;47.556;18.728;2022-12-05T08:55:22;52.20;;;12.13;;
51248;SDS011;39642;47.556;18.728;2022-12-05T08:57:48;66.53;;;12.52;;
51248;SDS011;39642;47.556;18.728;2022-12-05T09:00:14;57.33;;;11.20;;
51248;SDS011;39642;47.556;18.728;2022-12-05T09:02:41;37.13;;;9.52;;
51248;SDS011;39642;47.556;18.728;2022-12-05T09:05:07;36.10;;;9.23;;
51248;SDS011;39642;47.556;18.728;2022-12-05T09:07:33;37.13;;;10.27;;
51248;SDS011;39642;47.556;18.728;2022-12-05T09:09:59;40.20;;;9.65;;
51248;SDS011;39642;47.556;18.728;2022-12-05T09:12:25;35.88;;;10.65;;
51248;SDS011;39642;47.556;18.728;2022-12-05T09:14:51;38.63;;;9.25;;
51248;SDS011;39642;47.556;18.728;2022-12-05T09:17:17;36.80;;;9.18;;
51248;SDS011;39642;47.556;18.728;2022-12-05T09:19:43;26.33;;;8.05;;
51248;SDS011;39642;47.556;18.728;2022-12-05T09:22:09;25.15;;;7.95;;
51248;SDS011;39642;47.556;18.728;2022-12-05T09:24:35;26.48;;;7.65;;
51248;SDS011;39642;47.556;18.728;2022-12-05T09:27:01;19.40;;;7.72;;
51248;SDS011;39642;47.556;18.728;2022-12-05T09:29:27;27.42;;;8.70;;
51248;SDS011;39642;47.556;18.728;2022-12-05T09:31:56;26.23;;;8.30;;
51248;SDS011;39642;47.556;18.728;2022-12-05T09:34:21;27.42;;;7.45;;
51248;SDS011;39642;47.556;18.728;2022-12-05T09:36:49;23.92;;;7.30;;
51248;SDS011;39642;47.556;18.728;2022-12-05T09:39:16;22.40;;;8.10;;
51248;SDS011;39642;47.556;18.728;2022-12-05T09:41:50;23.45;;;7.90;;
51248;SDS011;39642;47.556;18.728;2022-12-05T09:47:14;35.65;;;8.20;;
51248;SDS011;39642;47.556;18.728;2022-12-05T09:49:50;41.97;;;8.15;;
51248;SDS011;39642;47.556;18.728;2022-12-05T09:52:36;47.60;;;8.35;;
51248;SDS011;39642;47.556;18.728;2022-12-05T09:55:14;31.70;;;7.78;;
51248;SDS011;39642;47.556;18.728;2022-12-05T09:57:47;44.35;;;8.40;;
51248;SDS011;39642;47.556;18.728;2022-12-05T10:00:20;46.17;;;8.57;;
51248;SDS011;39642;47.556;18.728;2022-12-05T10:09:47;24.48;;;7.00;;
51248;SDS011;39642;47.556;18.728;2022-12-05T10:11:56;30.50;;;7.35;;
51248;SDS011;39642;47.556;18.728;2022-12-05T10:17:20;37.83;;;8.13;;
51248;SDS011;39642;47.556;18.728;2022-12-05T10:19:52;31.67;;;7.28;;
51248;SDS011;39642;47.556;18.728;2022-12-05T10:22:27;32.40;;;7.65;;
51248;SDS011;39642;47.556;18.728;2022-12-05T10:25:01;33.72;;;7.00;;
51248;SDS011;39642;47.556;18.728;2022-12-05T10:29:58;32.08;;;7.43;;
51248;SDS011;39642;47.556;18.728;2022-12-05T10:32:29;26.58;;;7.20;;
51248;SDS011;39642;47.556;18.728;2022-12-05T10:37:38;34.67;;;7.70;;
51248;SDS011;39642;47.556;18.728;2022-12-05T10:40:04;26.70;;;7.00;;
51248;SDS011;39642;47.556;18.728;2022-12-05T10:42:32;47.80;;;8.48;;
51248;SDS011;39642;47.556;18.728;2022-12-05T10:45:07;37.38;;;8.15;;
51248;SDS011;39642;47.556;18.728;2022-12-05T10:47:39;36.83;;;8.35;;
51248;SDS011;39642;47.556;18.728;2022-12-05T10:50:10;37.45;;;7.80;;
51248;SDS011;39642;47.556;18.728;2022-12-05T10:52:46;35.92;;;8.38;;
51248;SDS011;39642;47.556;18.728;2022-12-05T10:55:13;38.10;;;8.32;;
51248;SDS011;39642;47.556;18.728;2022-12-05T10:57:41;41.75;;;8.32;;
51248;SDS011;39642;47.556;18.728;2022-12-05T11:00:14;35.00;;;7.47;;
51248;SDS011;39642;47.556;18.728;2022-12-05T11:02:42;32.55;;;7.70;;
51248;SDS011;39642;47.556;18.728;2022-12-05T11:05:08;30.40;;;7.28;;
51248;SDS011;39642;47.556;18.728;2022-12-05T11:07:35;31.33;;;6.72;;
51248;SDS011;39642;47.556;18.728;2022-12-05T11:10:24;29.25;;;6.87;;
51248;SDS011;39642;47.556;18.728;2022-12-05T11:12:51;31.60;;;7.45;;
51248;SDS011;39642;47.556;18.728;2022-12-05T11:15:21;29.30;;;7.20;;
51248;SDS011;39642;47.556;18.728;2022-12-05T11:17:50;28.98;;;7.50;;
51248;SDS011;39642;47.556;18.728;2022-12-05T11:22:44;32.30;;;7.50;;
51248;SDS011;39642;47.556;18.728;2022-12-05T11:33:23;20.17;;;7.00;;
51248;SDS011;39642;47.556;18.728;2022-12-05T11:35:53;24.95;;;7.50;;
51248;SDS011;39642;47.556;18.728;2022-12-05T11:38:24;23.38;;;8.18;;
51248;SDS011;39642;47.556;18.728;2022-12-05T11:40:54;34.17;;;9.45;;
51248;SDS011;39642;47.556;18.728;2022-12-05T11:52:45;37.90;;;9.35;;
51248;SDS011;39642;47.556;18.728;2022-12-05T12:12:33;107.00;;;14.93;;
51248;SDS011;39642;47.556;18.728;2022-12-05T12:23:35;57.28;;;11.12;;
51248;SDS011;39642;47.556;18.728;2022-12-05T12:26:24;36.95;;;8.85;;
51248;SDS011;39642;47.556;18.728;2022-12-05T12:32:42;33.05;;;10.50;;
51248;SDS011;39642;47.556;18.728;2022-12-05T12:40:50;39.45;;;10.65;;
51248;SDS011;39642;47.556;18.728;2022-12-05T12:51:55;33.25;;;10.43;;
51248;SDS011;39642;47.556;18.728;2022-12-05T12:54:40;41.72;;;11.00;;
51248;SDS011;39642;47.556;18.728;2022-12-05T12:57:24;44.42;;;9.60;;
51248;SDS011;39642;47.556;18.728;2022-12-05T13:00:10;43.42;;;9.55;;
51248;SDS011;39642;47.556;18.728;2022-12-05T13:08:57;38.47;;;10.63;;
51248;SDS011;39642;47.556;18.728;2022-12-05T13:11:24;41.65;;;10.05;;
51248;SDS011;39642;47.556;18.728;2022-12-05T13:13:55;35.63;;;9.05;;
51248;SDS011;39642;47.556;18.728;2022-12-05T13:16:26;26.40;;;8.07;;
51248;SDS011;39642;47.556;18.728;2022-12-05T13:18:56;36.80;;;9.85;;
51248;SDS011;39642;47.556;18.728;2022-12-05T13:21:23;34.35;;;8.57;;
51248;SDS011;39642;47.556;18.728;2022-12-05T13:23:51;33.90;;;9.57;;
51248;SDS011;39642;47.556;18.728;2022-12-05T13:26:28;27.17;;;8.85;;
51248;SDS011;39642;47.556;18.728;2022-12-05T13:28:56;36.08;;;10.75;;
51248;SDS011;39642;47.556;18.728;2022-12-05T13:31:41;34.80;;;9.50;;
51248;SDS011;39642;47.556;18.728;2022-12-05T13:34:31;41.78;;;9.98;;
51248;SDS011;39642;47.556;18.728;2022-12-05T13:37:11;33.15;;;9.02;;
51248;SDS011;39642;47.556;18.728;2022-12-05T13:40:23;34.30;;;10.00;;
51248;SDS011;39642;47.556;18.728;2022-12-05T13:43:12;35.40;;;10.57;;
51248;SDS011;39642;47.556;18.728;2022-12-05T13:45:53;36.07;;;10.57;;
51248;SDS011;39642;47.556;18.728;2022-12-05T13:48:26;29.58;;;10.23;;
51248;SDS011;39642;47.556;18.728;2022-12-05T13:50:59;35.90;;;10.70;;
51248;SDS011;39642;47.556;18.728;2022-12-05T13:53:49;39.15;;;10.38;;
51248;SDS011;39642;47.556;18.728;2022-12-05T13:56:26;33.45;;;10.23;;
51248;SDS011;39642;47.556;18.728;2022-12-05T13:59:10;31.02;;;9.07;;
51248;SDS011;39642;47.556;18.728;2022-12-05T14:04:24;37.38;;;9.07;;
51248;SDS011;39642;47.556;18.728;2022-12-05T14:07:08;42.70;;;9.68;;
51248;SDS011;39642;47.556;18.728;2022-12-05T14:09:51;32.47;;;9.10;;
51248;SDS011;39642;47.556;18.728;2022-12-05T14:17:23;29.33;;;8.32;;
51248;SDS011;39642;47.556;18.728;2022-12-05T14:23:02;42.15;;;9.43;;
51248;SDS011;39642;47.556;18.728;2022-12-05T14:25:35;38.13;;;9.52;;
51248;SDS011;39642;47.556;18.728;2022-12-05T14:28:11;31.83;;;9.32;;
51248;SDS011;39642;47.556;18.728;2022-12-05T14:33:44;37.45;;;10.13;;
51248;SDS011;39642;47.556;18.728;2022-12-05T14:36:15;43.85;;;9.80;;
51248;SDS011;39642;47.556;18.728;2022-12-05T14:38:53;32.67;;;8.80;;
51248;SDS011;39642;47.556;18.728;2022-12-05T14:41:24;36.25;;;10.05;;
51248;SDS011;39642;47.556;18.728;2022-12-05T14:43:55;35.92;;;9.65;;
51248;SDS011;39642;47.556;18.728;2022-12-05T14:46:26;46.10;;;10.95;;
51248;SDS011;39642;47.556;18.728;2022-12-05T14:48:57;46.45;;;10.73;;
51248;SDS011;39642;47.556;18.728;2022-12-05T14:51:59;34.65;;;10.10;;
51248;SDS011;39642;47.556;18.728;2022-12-05T14:54:25;34.85;;;11.05;;
51248;SDS011;39642;47.556;18.728;2022-12-05T14:56:53;35.50;;;10.35;;
51248;SDS011;39642;47.556;18.728;2022-12-05T14:59:31;33.80;;;10.23;;
51248;SDS011;39642;47.556;18.728;2022-12-05T15:02:24;32.05;;;11.12;;
51248;SDS011;39642;47.556;18.728;2022-12-05T15:07:40;41.35;;;10.90;;
51248;SDS011;39642;47.556;18.728;2022-12-05T15:10:27;39.58;;;9.90;;
51248;SDS011;39642;47.556;18.728;2022-12-05T15:12:57;43.10;;;10.48;;
51248;SDS011;39642;47.556;18.728;2022-12-05T15:15:41;34.35;;;11.88;;
51248;SDS011;39642;47.556;18.728;2022-12-05T15:26:20;29.20;;;10.45;;
51248;SDS011;39642;47.556;18.728;2022-12-05T15:28:59;26.70;;;9.07;;
51248;SDS011;39642;47.556;18.728;2022-12-05T15:31:48;30.80;;;11.00;;
51248;SDS011;39642;47.556;18.728;2022-12-05T15:39:51;23.27;;;9.25;;
51248;SDS011;39642;47.556;18.728;2022-12-05T15:42:22;22.98;;;9.70;;
51248;SDS011;39642;47.556;18.728;2022-12-05T15:47:39;22.92;;;9.63;;
51248;SDS011;39642;47.556;18.728;2022-12-05T15:50:13;24.67;;;9.48;;
51248;SDS011;39642;47.556;18.728;2022-12-05T15:52:40;31.80;;;10.10;;
51248;SDS011;39642;47.556;18.728;2022-12-05T16:00:29;28.62;;;9.90;;
51248;SDS011;39642;47.556;18.728;2022-12-05T16:02:59;25.37;;;9.57;;
51248;SDS011;39642;47.556;18.728;2022-12-05T16:05:36;23.15;;;9.65;;
51248;SDS011;39642;47.556;18.728;2022-12-05T16:08:05;25.17;;;10.68;;
51248;SDS011;39642;47.556;18.728;2022-12-05T16:10:32;21.42;;;9.73;;
51248;SDS011;39642;47.556;18.728;2022-12-05T16:13:05;23.23;;;9.20;;
51248;SDS011;39642;47.556;18.728;2022-12-05T16:15:40;23.05;;;9.00;;
51248;SDS011;39642;47.556;18.728;2022-12-05T16:18:20;25.77;;;10.50;;
51248;SDS011;39642;47.556;18.728;2022-12-05T16:20:49;19.50;;;9.07;;
51248;SDS011;39642;47.556;18.728;2022-12-05T16:23:26;21.27;;;8.35;;
51248;SDS011;39642;47.556;18.728;2022-12-05T16:26:18;18.42;;;8.48;;
51248;SDS011;39642;47.556;18.728;2022-12-05T16:28:55;20.30;;;9.18;;
51248;SDS011;39642;47.556;18.728;2022-12-05T16:31:23;16.90;;;7.85;;
51248;SDS011;39642;47.556;18.728;2022-12-05T16:33:57;22.10;;;9.00;;
51248;SDS011;39642;47.556;18.728;2022-12-05T16:36:45;19.35;;;9.80;;
51248;SDS011;39642;47.556;18.728;2022-12-05T16:39:13;20.60;;;9.48;;
51248;SDS011;39642;47.556;18.728;2022-12-05T16:41:40;20.95;;;9.63;;
51248;SDS011;39642;47.556;18.728;2022-12-05T16:46:56;24.23;;;9.82;;
51248;SDS011;39642;47.556;18.728;2022-12-05T16:54:32;20.70;;;8.23;;
51248;SDS011;39642;47.556;18.728;2022-12-05T16:56:59;23.05;;;7.95;;
51248;SDS011;39642;47.556;18.728;2022-12-05T17:01:59;18.62;;;8.02;;
51248;SDS011;39642;47.556;18.728;2022-12-05T17:04:26;18.73;;;7.97;;
51248;SDS011;39642;47.556;18.728;2022-12-05T17:06:53;17.62;;;8.35;;
51248;SDS011;39642;47.556;18.728;2022-12-05T17:09:19;22.02;;;8.07;;
51248;SDS011;39642;47.556;18.728;2022-12-05T17:11:45;18.40;;;8.07;;
51248;SDS011;39642;47.556;18.728;2022-12-05T17:14:14;19.48;;;8.68;;
51248;SDS011;39642;47.556;18.728;2022-12-05T17:16:42;19.55;;;8.60;;
51248;SDS011;39642;47.556;18.728;2022-12-05T17:19:09;21.33;;;9.45;;
51248;SDS011;39642;47.556;18.728;2022-12-05T17:21:35;15.82;;;7.85;;
51248;SDS011;39642;47.556;18.728;2022-12-05T17:24:02;17.08;;;7.90;;
51248;SDS011;39642;47.556;18.728;2022-12-05T17:26:29;19.67;;;7.97;;
51248;SDS011;39642;47.556;18.728;2022-12-05T17:28:54;16.77;;;8.25;;
51248;SDS011;39642;47.556;18.728;2022-12-05T17:31:22;17.45;;;7.57;;
51248;SDS011;39642;47.556;18.728;2022-12-05T17:33:49;18.58;;;7.87;;
51248;SDS011;39642;47.556;18.728;2022-12-05T17:36:16;18.42;;;8.50;;